Time;durP1;ratioP1;P1;durP2;ratioP2;P2;SDS_P1;SDS_P2;PMS_P1;PMS_P2;Temp;Humidity;BMP_temperature;BMP_pressure;BME280_temperature;BME280_humidity;BME280_pressure;Samples;Min_cycle;Max_cycle;Signal;HPM_P1;HPM_P2
2023/12/09 00:01:03;;;;;;;18.02;7.65;;;;;9.20;98280.00;;;;5031397;28;20095;-65
2023/12/09 00:03:30;;;;;;;14.73;7.47;;;;;9.20;98281.00;;;;5030902;28;20052;-65
2023/12/09 00:05:56;;;;;;;14.45;7.57;;;;;9.20;98288.00;;;;5031276;28;20125;-64
2023/12/09 00:08:23;;;;;;;15.45;7.88;;;;;9.20;98285.00;;;;5034611;28;20403;-65
2023/12/09 00:10:49;;;;;;;12.07;7.82;;;;;9.20;98293.00;;;;5033987;28;20493;-65
2023/12/09 00:13:17;;;;;;;15.13;8.73;;;;;9.10;98299.00;;;;5034947;28;20136;-64
2023/12/09 00:15:43;;;;;;;17.13;9.13;;;;;9.10;98305.00;;;;5033143;28;20131;-64
2023/12/09 00:18:10;;;;;;;19.50;9.10;;;;;9.00;98301.00;;;;5034966;28;20080;-65
2023/12/09 00:20:37;;;;;;;21.08;9.18;;;;;9.00;98305.00;;;;5034715;28;20057;-64
2023/12/09 00:23:04;;;;;;;18.10;8.88;;;;;9.00;98304.00;;;;5034799;28;20057;-62
2023/12/09 00:25:30;;;;;;;13.30;7.55;;;;;9.10;98321.00;;;;5033072;28;20077;-62
2023/12/09 00:27:57;;;;;;;13.23;7.93;;;;;9.10;98310.00;;;;5034799;28;20073;-63
2023/12/09 00:30:23;;;;;;;14.07;8.05;;;;;9.10;98299.00;;;;5034570;28;20124;-63
2023/12/09 00:32:50;;;;;;;15.38;7.97;;;;;9.10;98300.00;;;;5033469;28;20095;-62
2023/12/09 00:35:17;;;;;;;13.07;6.40;;;;;9.10;98296.00;;;;5033799;28;20045;-65
2023/12/09 00:37:44;;;;;;;10.95;7.20;;;;;9.10;98297.00;;;;5034532;28;20486;-62
2023/12/09 00:40:11;;;;;;;13.50;7.28;;;;;9.20;98303.00;;;;5034511;28;20044;-62
2023/12/09 00:42:38;;;;;;;11.68;6.82;;;;;9.20;98300.00;;;;5034536;28;20048;-61
2023/12/09 00:45:05;;;;;;;11.75;6.80;;;;;9.20;98295.00;;;;5033797;28;20128;-65
2023/12/09 00:47:32;;;;;;;11.50;6.97;;;;;9.30;98298.00;;;;5034314;28;20045;-64
2023/12/09 00:50:00;;;;;;;13.52;6.53;;;;;9.30;98310.00;;;;5034075;28;20383;-65
2023/12/09 00:52:26;;;;;;;11.85;6.80;;;;;9.20;98305.00;;;;5034237;28;20084;-64
2023/12/09 00:54:53;;;;;;;11.30;6.55;;;;;9.10;98311.00;;;;5033588;28;20108;-63
2023/12/09 00:57:22;;;;;;;11.70;7.00;;;;;9.20;98325.00;;;;5034137;28;20129;-65
2023/12/09 00:59:48;;;;;;;11.77;6.18;;;;;9.30;98316.00;;;;5034140;28;20045;-65
2023/12/09 01:02:15;;;;;;;11.90;6.75;;;;;9.30;98324.00;;;;5034022;28;20098;-65
2023/12/09 01:04:42;;;;;;;14.40;6.35;;;;;9.30;98328.00;;;;5033321;28;20045;-64
2023/12/09 01:07:09;;;;;;;13.90;6.40;;;;;9.30;98332.00;;;;5016357;28;20562;-65
2023/12/09 01:09:36;;;;;;;12.65;6.57;;;;;9.30;98334.00;;;;5033998;28;20398;-64
2023/12/09 01:12:03;;;;;;;10.48;6.07;;;;;9.30;98329.00;;;;5032681;28;20562;-65
2023/12/09 01:14:29;;;;;;;13.80;7.32;;;;;9.30;98322.00;;;;5033274;28;20041;-65
2023/12/09 01:16:56;;;;;;;16.10;6.38;;;;;9.30;98340.00;;;;5033547;28;20041;-64
2023/12/09 01:19:22;;;;;;;10.10;6.10;;;;;9.30;98336.00;;;;5032720;28;20132;-64
2023/12/09 01:21:49;;;;;;;10.73;6.05;;;;;9.30;98340.00;;;;5033554;28;20042;-65
2023/12/09 01:24:16;;;;;;;11.00;6.32;;;;;9.30;98342.00;;;;5032973;28;20043;-65
2023/12/09 01:26:43;;;;;;;13.55;7.25;;;;;9.20;98342.00;;;;5033525;28;20049;-63
2023/12/09 01:29:09;;;;;;;13.98;7.10;;;;;9.10;98341.00;;;;5033572;28;20041;-62
2023/12/09 01:31:36;;;;;;;10.98;6.82;;;;;9.20;98335.00;;;;5033422;28;20398;-62
2023/12/09 01:34:02;;;;;;;12.45;6.22;;;;;9.20;98331.00;;;;5032954;28;20049;-62
2023/12/09 01:36:29;;;;;;;13.25;6.10;;;;;9.20;98341.00;;;;5033453;28;20107;-62
2023/12/09 01:38:56;;;;;;;9.50;5.40;;;;;9.20;98335.00;;;;5033423;28;20045;-62
2023/12/09 01:41:22;;;;;;;11.80;5.88;;;;;9.10;98342.00;;;;5032119;28;20045;-64
2023/12/09 01:43:50;;;;;;;12.30;6.60;;;;;9.00;98342.00;;;;5032672;28;20047;-62
2023/12/09 01:46:18;;;;;;;10.02;5.88;;;;;9.00;98332.00;;;;5033152;28;20051;-65
2023/12/09 01:48:45;;;;;;;11.30;5.20;;;;;9.00;98344.00;;;;5033105;28;20501;-63
2023/12/09 01:51:13;;;;;;;15.75;6.05;;;;;9.00;98344.00;;;;5033180;28;20099;-64
2023/12/09 01:53:41;;;;;;;10.85;5.32;;;;;8.90;98343.00;;;;5032416;28;20128;-62
2023/12/09 01:56:10;;;;;;;13.32;5.35;;;;;8.90;98345.00;;;;5032617;28;20053;-64
2023/12/09 01:58:37;;;;;;;8.57;5.07;;;;;9.00;98343.00;;;;5032949;28;20038;-65
2023/12/09 02:01:05;;;;;;;9.90;5.15;;;;;9.00;98340.00;;;;5032909;28;20038;-62
2023/12/09 02:03:33;;;;;;;12.98;6.07;;;;;9.00;98343.00;;;;5032242;28;20072;-62
2023/12/09 02:06:00;;;;;;;13.57;5.68;;;;;9.00;98339.00;;;;5032787;28;20049;-62
2023/12/09 02:08:26;;;;;;;10.60;4.95;;;;;9.00;98338.00;;;;5032810;28;20510;-62
2023/12/09 02:11:17;;;;;;;10.07;5.38;;;;;9.00;98342.00;;;;5032743;28;20107;-62
2023/12/09 02:13:49;;;;;;;8.38;4.90;;;;;8.90;98334.00;;;;5032166;28;20060;-64
2023/12/09 02:16:26;;;;;;;13.45;5.43;;;;;8.90;98329.00;;;;5032650;28;20045;-64
2023/12/09 02:18:53;;;;;;;9.10;4.60;;;;;9.00;98317.00;;;;5032815;28;20473;-64
2023/12/09 02:21:20;;;;;;;11.77;5.55;;;;;9.00;98307.00;;;;5032532;28;20069;-64
2023/12/09 02:23:46;;;;;;;11.25;5.55;;;;;9.00;98303.00;;;;5031836;28;20096;-64
2023/12/09 02:26:26;;;;;;;10.52;4.90;;;;;9.10;98297.00;;;;5032454;28;20091;-64
2023/12/09 02:29:00;;;;;;;13.10;5.63;;;;;9.20;98285.00;;;;5032555;28;20055;-64
2023/12/09 02:31:31;;;;;;;10.95;5.13;;;;;9.10;98282.00;;;;5032259;28;20128;-64
2023/12/09 02:34:01;;;;;;;10.70;5.35;;;;;9.00;98261.00;;;;5031794;28;20041;-63
2023/12/09 02:36:29;;;;;;;13.32;5.47;;;;;9.10;98272.00;;;;5032383;28;20055;-65
2023/12/09 02:38:56;;;;;;;15.55;5.32;;;;;9.10;98269.00;;;;5032296;28;20045;-65
2023/12/09 02:41:24;;;;;;;12.05;5.47;;;;;9.10;98264.00;;;;5032300;28;20048;-65
2023/12/09 02:43:50;;;;;;;18.90;5.30;;;;;9.10;98260.00;;;;5031722;28;20099;-63
2023/12/09 02:46:17;;;;;;;18.65;5.32;;;;;9.10;98258.00;;;;5032106;28;20041;-62
2023/12/09 02:48:43;;;;;;;16.73;4.60;;;;;9.10;98247.00;;;;5032148;28;20045;-61
2023/12/09 02:51:10;;;;;;;12.90;5.22;;;;;8.90;98253.00;;;;5032117;28;20041;-60
2023/12/09 02:53:37;;;;;;;14.32;5.72;;;;;9.00;98246.00;;;;5030338;28;20045;-61
2023/12/09 02:56:04;;;;;;;15.40;5.30;;;;;9.10;98256.00;;;;5032097;28;20048;-61
2023/12/09 02:58:31;;;;;;;15.25;4.85;;;;;9.10;98260.00;;;;5030854;28;20045;-63
2023/12/09 03:00:57;;;;;;;16.67;4.60;;;;;9.10;98251.00;;;;5031924;28;20056;-62
2023/12/09 03:03:24;;;;;;;15.00;4.50;;;;;9.10;98259.00;;;;5031496;28;20053;-65
2023/12/09 03:05:50;;;;;;;18.27;4.30;;;;;9.10;98244.00;;;;5030473;28;20494;-61
2023/12/09 03:08:17;;;;;;;18.77;5.15;;;;;9.10;98242.00;;;;5031803;28;20046;-64
2023/12/09 03:10:43;;;;;;;16.35;4.82;;;;;9.10;98246.00;;;;5043087;28;20128;-64
2023/12/09 03:13:10;;;;;;;19.10;5.07;;;;;9.10;98251.00;;;;5051334;28;20100;-62
2023/12/09 03:15:37;;;;;;;16.42;5.45;;;;;9.10;98239.00;;;;5054730;28;20056;-62
2023/12/09 03:18:03;;;;;;;18.60;4.05;;;;;9.00;98241.00;;;;5056337;28;20116;-61
2023/12/09 03:20:30;;;;;;;12.65;4.50;;;;;9.10;98246.00;;;;5056301;28;20038;-61
2023/12/09 03:22:56;;;;;;;19.10;4.55;;;;;9.10;98241.00;;;;5055697;28;20036;-61
2023/12/09 03:25:23;;;;;;;17.25;4.72;;;;;9.10;98244.00;;;;5055810;28;20060;-63
2023/12/09 03:27:50;;;;;;;15.32;4.32;;;;;9.10;98236.00;;;;5056801;28;20060;-60
2023/12/09 03:30:16;;;;;;;15.27;3.78;;;;;9.10;98248.00;;;;5056406;28;20068;-61
2023/12/09 03:32:43;;;;;;;10.55;3.65;;;;;9.10;98217.00;;;;5056300;28;20071;-61
2023/12/09 03:35:12;;;;;;;13.20;4.03;;;;;9.10;98241.00;;;;5055948;28;20095;-62
2023/12/09 03:37:38;;;;;;;15.48;4.25;;;;;9.10;98236.00;;;;5056716;28;20037;-60
2023/12/09 03:40:06;;;;;;;14.57;4.05;;;;;9.10;98249.00;;;;5056951;28;20048;-59
2023/12/09 03:42:32;;;;;;;18.23;4.82;;;;;9.00;98249.00;;;;5057994;28;20037;-60
2023/12/09 03:44:59;;;;;;;17.92;4.22;;;;;9.00;98257.00;;;;5060209;28;20100;-60
2023/12/09 03:47:25;;;;;;;18.15;3.40;;;;;8.90;98253.00;;;;5060762;28;20034;-61
2023/12/09 03:49:55;;;;;;;11.63;3.70;;;;;8.80;98254.00;;;;5061120;28;20029;-60
2023/12/09 03:52:22;;;;;;;8.85;2.90;;;;;8.70;98266.00;;;;5060866;28;20265;-60
2023/12/09 03:54:48;;;;;;;14.55;2.85;;;;;8.70;98248.00;;;;5060326;28;20056;-60
2023/12/09 03:57:15;;;;;;;21.13;4.75;;;;;8.70;98249.00;;;;5060814;28;20041;-62
2023/12/09 03:59:42;;;;;;;11.70;3.28;;;;;8.80;98249.00;;;;5060854;28;20074;-60
2023/12/09 04:02:08;;;;;;;10.15;3.38;;;;;8.80;98242.00;;;;5037564;28;20065;-63
2023/12/09 04:04:40;;;;;;;13.50;3.17;;;;;8.90;98255.00;;;;5035102;28;20072;-63
2023/12/09 04:07:06;;;;;;;20.88;4.13;;;;;9.00;98238.00;;;;5035558;28;20053;-63
2023/12/09 04:09:33;;;;;;;12.15;3.10;;;;;9.00;98244.00;;;;5036372;28;20132;-63
2023/12/09 04:12:00;;;;;;;12.65;3.05;;;;;9.10;98244.00;;;;5036670;28;20041;-63
2023/12/09 04:14:27;;;;;;;13.27;3.13;;;;;9.10;98246.00;;;;5035208;28;20041;-61
2023/12/09 04:16:53;;;;;;;14.73;4.65;;;;;9.10;98248.00;;;;5035652;28;20050;-63
2023/12/09 04:19:20;;;;;;;14.35;3.20;;;;;9.10;98236.00;;;;5035816;28;20045;-63
2023/12/09 04:21:47;;;;;;;11.93;3.60;;;;;9.10;98250.00;;;;5035715;28;20513;-64
2023/12/09 04:24:13;;;;;;;12.35;3.15;;;;;9.10;98225.00;;;;5034907;28;20052;-63
2023/12/09 04:26:40;;;;;;;18.40;4.10;;;;;9.20;98240.00;;;;5035168;28;20409;-61
2023/12/09 04:29:06;;;;;;;15.05;3.45;;;;;9.30;98234.00;;;;5035257;28;20506;-61
2023/12/09 04:31:33;;;;;;;16.98;4.22;;;;;9.20;98231.00;;;;5035219;28;20120;-61
2023/12/09 04:34:00;;;;;;;21.17;4.50;;;;;9.20;98237.00;;;;5034802;28;20124;-62
2023/12/09 04:36:26;;;;;;;17.35;3.88;;;;;9.20;98225.00;;;;5036591;28;20490;-62
2023/12/09 04:38:53;;;;;;;18.77;4.50;;;;;9.20;98224.00;;;;5036653;28;20091;-61
2023/12/09 04:41:20;;;;;;;18.55;4.65;;;;;9.20;98227.00;;;;5035295;28;20045;-64
2023/12/09 04:43:46;;;;;;;18.67;4.32;;;;;9.20;98213.00;;;;5034301;28;20602;-64
2023/12/09 04:46:13;;;;;;;15.85;4.10;;;;;9.20;98205.00;;;;5034500;28;20056;-64
2023/12/09 04:48:40;;;;;;;15.43;4.78;;;;;9.10;98214.00;;;;5034721;28;20041;-63
2023/12/09 04:51:06;;;;;;;13.25;3.63;;;;;9.10;98199.00;;;;5034474;28;20132;-64
2023/12/09 04:53:33;;;;;;;17.17;4.38;;;;;9.10;98205.00;;;;5033756;28;20046;-64
2023/12/09 04:56:00;;;;;;;16.77;4.13;;;;;9.10;98199.00;;;;5034393;28;20053;-63
2023/12/09 04:58:26;;;;;;;14.20;4.25;;;;;9.10;98192.00;;;;5033208;28;20049;-64
2023/12/09 05:00:53;;;;;;;15.48;4.32;;;;;9.10;98193.00;;;;5035064;28;20111;-64
2023/12/09 05:03:20;;;;;;;14.65;4.60;;;;;9.00;98184.00;;;;5034114;28;20038;-63
2023/12/09 05:05:47;;;;;;;9.38;4.78;;;;;9.00;98179.00;;;;5032425;28;20057;-64
2023/12/09 05:08:13;;;;;;;14.30;4.32;;;;;9.00;98187.00;;;;5034152;28;20076;-64
2023/12/09 05:10:40;;;;;;;13.98;4.13;;;;;9.00;98181.00;;;;5034331;28;20053;-64
2023/12/09 05:13:06;;;;;;;15.18;4.75;;;;;8.90;98169.00;;;;5034300;28;20046;-64
2023/12/09 05:15:33;;;;;;;14.45;4.40;;;;;8.90;98173.00;;;;5033720;28;20441;-63
2023/12/09 05:18:00;;;;;;;13.55;4.13;;;;;8.90;98166.00;;;;5034490;28;20053;-64
2023/12/09 05:20:26;;;;;;;15.75;4.90;;;;;8.90;98166.00;;;;5033431;28;20052;-64
2023/12/09 05:22:53;;;;;;;13.57;4.78;;;;;8.90;98165.00;;;;5034208;28;20045;-63
2023/12/09 05:25:20;;;;;;;25.17;5.78;;;;;8.90;98162.00;;;;5032357;28;20049;-64
2023/12/09 05:27:47;;;;;;;12.05;4.45;;;;;8.90;98154.00;;;;5034250;28;20120;-65
2023/12/09 05:30:13;;;;;;;21.15;5.63;;;;;9.00;98156.00;;;;5034083;28;20076;-64
2023/12/09 05:32:40;;;;;;;15.27;5.47;;;;;9.00;98158.00;;;;5033763;28;20045;-64
2023/12/09 05:35:07;;;;;;;17.40;5.15;;;;;9.00;98150.00;;;;5033109;28;20494;-64
2023/12/09 05:37:33;;;;;;;16.98;5.47;;;;;9.00;98142.00;;;;5033488;28;20053;-64
2023/12/09 05:40:00;;;;;;;18.55;5.47;;;;;8.90;98140.00;;;;5034132;28;20049;-63
2023/12/09 05:42:27;;;;;;;16.60;5.50;;;;;9.00;98138.00;;;;5034010;28;20053;-62
2023/12/09 05:44:54;;;;;;;15.93;5.00;;;;;9.00;98134.00;;;;5033337;28;20045;-64
2023/12/09 05:47:20;;;;;;;14.23;6.68;;;;;9.10;98135.00;;;;5033712;28;20096;-64
2023/12/09 05:49:47;;;;;;;15.32;5.85;;;;;9.00;98132.00;;;;5033665;28;20051;-64
2023/12/09 05:52:13;;;;;;;13.05;5.45;;;;;9.00;98141.00;;;;5033418;28;20049;-64
2023/12/09 05:54:40;;;;;;;13.20;5.65;;;;;9.00;98126.00;;;;5033011;28;20490;-64
2023/12/09 05:57:06;;;;;;;12.05;4.78;;;;;9.00;98121.00;;;;5033424;28;20049;-64
2023/12/09 05:59:33;;;;;;;14.90;6.22;;;;;9.00;98125.00;;;;5032354;28;20049;-64
2023/12/09 06:02:00;;;;;;;14.10;5.40;;;;;9.00;98119.00;;;;5033307;28;20087;-64
2023/12/09 06:04:26;;;;;;;12.80;5.35;;;;;9.00;98121.00;;;;5032044;28;20402;-64
2023/12/09 06:06:53;;;;;;;16.83;5.75;;;;;9.00;98122.00;;;;5033588;28;20041;-64
2023/12/09 06:09:19;;;;;;;15.77;5.43;;;;;9.00;98124.00;;;;5033062;28;20409;-64
2023/12/09 06:11:46;;;;;;;15.95;5.70;;;;;9.00;98132.00;;;;5032967;28;20041;-60
2023/12/09 06:14:12;;;;;;;12.80;5.55;;;;;9.00;98137.00;;;;5032655;28;20053;-62
2023/12/09 06:16:39;;;;;;;16.90;6.75;;;;;9.10;98139.00;;;;5032691;28;20046;-60
2023/12/09 06:19:06;;;;;;;13.77;6.32;;;;;9.10;98131.00;;;;5032800;28;20120;-60
2023/12/09 06:21:32;;;;;;;14.32;4.80;;;;;9.00;98131.00;;;;5032857;28;20496;-63
2023/12/09 06:23:59;;;;;;;13.05;5.18;;;;;9.00;98130.00;;;;5032067;28;20045;-61
2023/12/09 06:26:26;;;;;;;10.20;4.43;;;;;9.00;98137.00;;;;5032603;28;20049;-61
2023/12/09 06:28:52;;;;;;;12.82;4.82;;;;;9.00;98126.00;;;;5032648;28;20041;-61
2023/12/09 06:31:19;;;;;;;13.52;5.35;;;;;9.10;98134.00;;;;5031483;28;20124;-61
2023/12/09 06:33:46;;;;;;;12.13;4.85;;;;;9.10;98125.00;;;;5032452;28;20405;-62
2023/12/09 06:36:12;;;;;;;16.40;4.85;;;;;9.10;98120.00;;;;5032546;28;20128;-62
2023/12/09 06:38:40;;;;;;;11.75;4.72;;;;;9.00;98112.00;;;;5032344;28;20418;-62
2023/12/09 06:41:07;;;;;;;8.88;3.83;;;;;9.00;98119.00;;;;5032347;28;20045;-61
2023/12/09 06:43:34;;;;;;;11.93;5.00;;;;;9.00;98120.00;;;;5031702;28;20418;-61
2023/12/09 06:46:03;;;;;;;11.82;4.28;;;;;9.00;98132.00;;;;5032285;28;20112;-62
2023/12/09 06:48:30;;;;;;;10.13;3.90;;;;;9.00;98135.00;;;;5032188;28;20045;-62
2023/12/09 06:50:56;;;;;;;14.50;4.32;;;;;9.00;98126.00;;;;5031089;28;20521;-61
2023/12/09 06:53:23;;;;;;;11.82;3.53;;;;;9.00;98130.00;;;;5031652;28;20088;-64
2023/12/09 06:55:49;;;;;;;13.35;4.32;;;;;9.00;98119.00;;;;5032028;28;20052;-63
2023/12/09 06:58:16;;;;;;;9.40;3.45;;;;;9.00;98121.00;;;;5032172;28;20091;-62
2023/12/09 07:00:43;;;;;;;10.55;3.72;;;;;9.10;98134.00;;;;5031915;28;20049;-62
2023/12/09 07:03:11;;;;;;;9.55;4.38;;;;;9.10;98136.00;;;;5032054;28;20116;-64
2023/12/09 07:05:38;;;;;;;11.13;4.00;;;;;9.10;98131.00;;;;5031393;28;20068;-62
2023/12/09 07:08:05;;;;;;;9.90;3.50;;;;;9.10;98139.00;;;;5031997;28;20128;-62
2023/12/09 07:10:31;;;;;;;15.65;3.60;;;;;9.10;98137.00;;;;5031943;28;20042;-62
2023/12/09 07:12:58;;;;;;;16.27;3.88;;;;;9.20;98138.00;;;;5031983;28;20045;-62
2023/12/09 07:15:24;;;;;;;12.68;4.22;;;;;9.20;98125.00;;;;5031207;28;20050;-63
2023/12/09 07:17:51;;;;;;;10.85;3.75;;;;;9.30;98125.00;;;;5034406;28;20045;-62
2023/12/09 07:20:18;;;;;;;13.95;4.32;;;;;9.30;98129.00;;;;5036099;28;20120;-62
2023/12/09 07:22:45;;;;;;;14.57;4.00;;;;;9.30;98150.00;;;;5035848;28;20045;-62
2023/12/09 07:25:11;;;;;;;12.43;4.05;;;;;9.20;98137.00;;;;5035366;28;20046;-61
2023/12/09 07:27:38;;;;;;;10.55;4.35;;;;;9.20;98133.00;;;;5035884;28;20045;-62
2023/12/09 07:30:05;;;;;;;8.23;3.90;;;;;9.10;98134.00;;;;5035812;28;20136;-64
2023/12/09 07:32:32;;;;;;;11.77;3.50;;;;;9.00;98125.00;;;;5035663;28;20491;-60
2023/12/09 07:34:59;;;;;;;11.80;3.55;;;;;9.00;98134.00;;;;5035213;28;20049;-62
2023/12/09 07:37:25;;;;;;;9.07;4.07;;;;;9.00;98145.00;;;;5035600;28;20521;-61
2023/12/09 07:39:52;;;;;;;8.95;4.28;;;;;9.10;98143.00;;;;5034338;28;20055;-61
2023/12/09 07:42:19;;;;;;;16.88;3.97;;;;;9.10;98136.00;;;;5035608;28;20041;-62
2023/12/09 07:44:46;;;;;;;10.38;3.75;;;;;9.00;98129.00;;;;5035004;28;20041;-62
2023/12/09 07:47:12;;;;;;;10.15;3.78;;;;;9.00;98128.00;;;;5035363;28;20051;-62
2023/12/09 07:49:39;;;;;;;13.48;5.18;;;;;9.00;98127.00;;;;5035555;28;20051;-62
2023/12/09 07:52:05;;;;;;;11.95;5.05;;;;;9.10;98133.00;;;;5035408;28;20097;-62
2023/12/09 07:54:32;;;;;;;17.02;5.25;;;;;9.10;98119.00;;;;5034976;28;20095;-62
2023/12/09 07:56:59;;;;;;;10.70;3.75;;;;;9.00;98108.00;;;;5035231;28;20045;-62
2023/12/09 07:59:25;;;;;;;11.68;4.22;;;;;9.00;98088.00;;;;5035358;28;20045;-63
2023/12/09 08:01:52;;;;;;;13.00;3.92;;;;;9.00;98092.00;;;;5035315;28;20055;-62
2023/12/09 08:04:18;;;;;;;10.02;4.10;;;;;9.00;98088.00;;;;5034776;28;20087;-62
2023/12/09 08:06:45;;;;;;;11.65;4.32;;;;;9.00;98091.00;;;;5033620;28;20103;-62
2023/12/09 08:09:12;;;;;;;11.30;3.67;;;;;9.00;98089.00;;;;5035086;28;20115;-62
2023/12/09 08:11:38;;;;;;;10.63;4.35;;;;;9.00;98089.00;;;;5033835;28;20049;-62
2023/12/09 08:14:05;;;;;;;11.80;3.85;;;;;9.00;98087.00;;;;5034461;28;20413;-62
2023/12/09 08:16:36;;;;;;;11.70;4.25;;;;;9.10;98076.00;;;;5035029;28;20056;-63
2023/12/09 08:19:02;;;;;;;17.75;4.95;;;;;9.10;98086.00;;;;5033763;28;20550;-62
2023/12/09 08:21:34;;;;;;;13.95;4.40;;;;;9.30;98088.00;;;;5034893;28;20045;-62
2023/12/09 08:24:01;;;;;;;14.68;3.72;;;;;9.40;98086.00;;;;5034218;28;20046;-62
2023/12/09 08:26:28;;;;;;;13.32;4.70;;;;;9.40;98084.00;;;;5034835;28;20486;-63
2023/12/09 08:28:55;;;;;;;11.00;4.38;;;;;9.40;98076.00;;;;5034319;28;20124;-62
2023/12/09 08:31:21;;;;;;;13.02;4.18;;;;;9.40;98077.00;;;;5034831;28;20041;-63
2023/12/09 08:33:48;;;;;;;11.82;4.32;;;;;9.50;98064.00;;;;5034036;28;20129;-64
2023/12/09 08:36:15;;;;;;;12.95;4.30;;;;;9.60;98060.00;;;;5034649;28;20498;-61
2023/12/09 08:38:41;;;;;;;11.57;3.30;;;;;9.70;98062.00;;;;5034607;28;20136;-61
2023/12/09 08:41:08;;;;;;;12.98;3.15;;;;;9.60;98044.00;;;;5034677;28;20051;-61
2023/12/09 08:43:34;;;;;;;10.93;3.03;;;;;9.60;98050.00;;;;5033989;28;20582;-62
2023/12/09 08:46:01;;;;;;;14.95;3.47;;;;;9.60;98056.00;;;;5034551;28;20046;-62
2023/12/09 08:48:27;;;;;;;8.50;3.00;;;;;9.50;98052.00;;;;5034531;28;20033;-61
2023/12/09 08:50:54;;;;;;;6.90;3.03;;;;;9.50;98064.00;;;;5034610;28;20045;-60
2023/12/09 08:53:21;;;;;;;10.00;3.28;;;;;9.60;98058.00;;;;5033969;28;20041;-63
2023/12/09 08:55:47;;;;;;;5.63;2.55;;;;;9.60;98050.00;;;;5034271;28;20479;-60
2023/12/09 08:58:16;;;;;;;7.55;2.53;;;;;9.60;98036.00;;;;5034381;28;20047;-62
2023/12/09 09:00:42;;;;;;;5.50;2.80;;;;;9.60;98036.00;;;;5032939;28;20176;-60
2023/12/09 09:03:09;;;;;;;10.45;2.80;;;;;9.60;98026.00;;;;5034117;28;20044;-63
2023/12/09 09:05:36;;;;;;;10.55;3.78;;;;;9.60;98016.00;;;;5034357;28;20060;-61
2023/12/09 09:08:03;;;;;;;8.95;2.60;;;;;9.60;98002.00;;;;5035223;28;20052;-61
2023/12/09 09:10:30;;;;;;;5.75;2.42;;;;;9.70;98010.00;;;;5034259;28;20170;-62
2023/12/09 09:12:57;;;;;;;12.25;3.53;;;;;9.70;98026.00;;;;5032786;28;20041;-61
2023/12/09 09:15:23;;;;;;;12.25;2.97;;;;;9.60;98015.00;;;;5033361;28;20063;-62
2023/12/09 09:17:51;;;;;;;13.30;3.15;;;;;9.60;98015.00;;;;5033897;28;20115;-61
2023/12/09 09:20:17;;;;;;;9.00;3.38;;;;;9.70;98016.00;;;;5033982;28;20045;-60
2023/12/09 09:22:44;;;;;;;11.70;3.38;;;;;9.70;98009.00;;;;5033707;28;20037;-62
2023/12/09 09:25:15;;;;;;;11.65;3.28;;;;;9.70;98010.00;;;;5033242;28;20045;-61
2023/12/09 09:27:45;;;;;;;11.20;2.92;;;;;9.80;98006.00;;;;5033771;28;20049;-60
2023/12/09 09:30:13;;;;;;;9.65;2.78;;;;;9.70;98009.00;;;;5033765;28;20099;-62
2023/12/09 09:32:40;;;;;;;7.10;2.60;;;;;9.80;98001.00;;;;5033856;28;20121;-60
2023/12/09 09:35:08;;;;;;;7.63;2.67;;;;;9.80;98002.00;;;;5033270;28;20052;-61
2023/12/09 09:37:35;;;;;;;9.13;2.80;;;;;9.80;97991.00;;;;5033352;28;20042;-63
2023/12/09 09:40:04;;;;;;;7.72;2.28;;;;;9.80;97993.00;;;;5032728;28;20041;-64
2023/12/09 09:42:40;;;;;;;7.60;2.78;;;;;9.80;97997.00;;;;5032192;28;20116;-63
2023/12/09 09:45:23;;;;;;;8.20;2.75;;;;;9.70;97996.00;;;;5032870;28;20053;-63
2023/12/09 09:48:03;;;;;;;10.20;3.20;;;;;9.70;97998.00;;;;5033336;28;20550;-63
2023/12/09 09:50:37;;;;;;;11.75;3.17;;;;;9.80;98001.00;;;;5033412;28;20061;-64
2023/12/09 09:53:05;;;;;;;;;;;;;9.80;97994.00;;;;5033756;28;20121;-64
2023/12/09 09:55:32;;;;;;;9.73;2.78;;;;;9.80;97992.00;;;;5032652;28;20288;-64
2023/12/09 09:57:59;;;;;;;10.13;3.10;;;;;9.70;97985.00;;;;5033192;28;20045;-64
2023/12/09 10:00:28;;;;;;;11.00;3.42;;;;;9.70;97980.00;;;;5033199;28;20124;-64
2023/12/09 10:02:55;;;;;;;9.63;3.40;;;;;9.80;97973.00;;;;5033177;28;20414;-63
2023/12/09 10:05:25;;;;;;;10.70;3.50;;;;;9.90;97967.00;;;;5032515;28;20073;-60
2023/12/09 10:07:53;;;;;;;13.32;5.25;;;;;9.90;97976.00;;;;5032945;28;20052;-63
2023/12/09 10:10:20;;;;;;;25.30;4.75;;;;;9.80;97958.00;;;;5031715;28;20041;-62
2023/12/09 10:12:46;;;;;;;27.50;12.40;;;;;9.80;97964.00;;;;5032842;28;20414;-64
2023/12/09 10:15:13;;;;;;;11.88;4.88;;;;;9.80;97960.00;;;;5032270;28;20060;-62
2023/12/09 10:17:40;;;;;;;16.60;4.38;;;;;9.80;97959.00;;;;5032671;28;20073;-62
2023/12/09 10:20:09;;;;;;;11.05;4.60;;;;;9.90;97955.00;;;;5032826;28;20046;-61
2023/12/09 10:22:37;;;;;;;11.68;4.03;;;;;9.90;97940.00;;;;5032411;28;20084;-64
2023/12/09 10:25:04;;;;;;;11.23;3.97;;;;;9.90;97935.00;;;;5032087;28;20061;-64
2023/12/09 10:27:30;;;;;;;8.18;3.03;;;;;9.90;97935.00;;;;5031354;28;20067;-64
2023/12/09 10:29:59;;;;;;;10.00;2.67;;;;;9.90;97912.00;;;;5032755;28;20593;-64
2023/12/09 10:32:26;;;;;;;9.93;3.20;;;;;9.90;97903.00;;;;5031201;28;20048;-63
2023/12/09 10:34:53;;;;;;;6.97;2.10;;;;;9.90;97883.00;;;;5031850;28;20069;-64
2023/12/09 10:37:21;;;;;;;13.05;2.55;;;;;9.90;97882.00;;;;5032285;28;20267;-64
2023/12/09 10:39:50;;;;;;;10.55;2.40;;;;;9.90;97875.00;;;;5031251;28;20107;-64
2023/12/09 10:42:16;;;;;;;8.70;2.60;;;;;9.90;97868.00;;;;5032468;28;20461;-62
2023/12/09 10:44:43;;;;;;;6.43;2.40;;;;;9.90;97866.00;;;;5031700;28;20052;-64
2023/12/09 10:47:09;;;;;;;10.45;3.22;;;;;9.90;97848.00;;;;5031008;28;20049;-65
2023/12/09 10:49:36;;;;;;;7.40;3.75;;;;;10.00;97842.00;;;;5032261;28;20442;-63
2023/12/09 10:52:04;;;;;;;5.63;2.53;;;;;10.00;97828.00;;;;5032014;28;20510;-65
2023/12/09 10:54:31;;;;;;;10.30;3.08;;;;;10.00;97824.00;;;;5030334;28;20549;-64
2023/12/09 10:56:58;;;;;;;8.00;3.92;;;;;10.00;97804.00;;;;5032226;28;20041;-65
2023/12/09 10:59:27;;;;;;;9.55;3.55;;;;;10.00;97807.00;;;;5032098;28;20410;-62
2023/12/09 11:01:54;;;;;;;10.65;3.47;;;;;10.10;97794.00;;;;5032040;28;20041;-62
2023/12/09 11:04:20;;;;;;;13.73;3.38;;;;;10.10;97778.00;;;;5031574;28;20136;-64
2023/12/09 11:06:50;;;;;;;15.65;7.13;;;;;10.10;97770.00;;;;5031950;28;20061;-60
2023/12/09 11:09:18;;;;;;;14.90;6.80;;;;;10.10;97769.00;;;;5031959;28;20037;-63
2023/12/09 11:11:46;;;;;;;24.55;8.55;;;;;10.10;97758.00;;;;5031983;28;20131;-62
2023/12/09 11:14:13;;;;;;;14.90;4.72;;;;;10.10;97759.00;;;;5031174;28;20041;-63
2023/12/09 11:16:44;;;;;;;16.80;6.10;;;;;10.20;97755.00;;;;5031823;28;20388;-64
2023/12/09 11:19:16;;;;;;;21.52;6.75;;;;;10.30;97754.00;;;;5031811;28;20486;-64
2023/12/09 11:21:46;;;;;;;20.90;8.13;;;;;10.40;97739.00;;;;5031752;28;20073;-63
2023/12/09 11:24:15;;;;;;;9.40;3.85;;;;;10.40;97736.00;;;;5031252;28;20103;-63
2023/12/09 11:26:48;;;;;;;7.28;2.85;;;;;10.50;97726.00;;;;5031897;28;20061;-65
2023/12/09 11:29:20;;;;;;;11.35;4.47;;;;;10.50;97717.00;;;;5031799;28;20045;-65
2023/12/09 11:31:48;;;;;;;8.02;2.67;;;;;10.50;97713.00;;;;5031789;28;20059;-65
2023/12/09 11:34:18;;;;;;;8.68;2.60;;;;;10.50;97706.00;;;;5031021;28;20457;-65
2023/12/09 11:36:49;;;;;;;7.07;2.38;;;;;10.50;97703.00;;;;5031634;28;20501;-65
2023/12/09 11:39:20;;;;;;;6.80;3.25;;;;;10.50;97706.00;;;;5031667;28;20045;-63
2023/12/09 11:41:48;;;;;;;8.77;2.60;;;;;10.50;97711.00;;;;5031792;28;20076;-65
2023/12/09 11:44:15;;;;;;;7.22;4.63;;;;;10.60;97696.00;;;;5031071;28;20034;-65
2023/12/09 11:46:43;;;;;;;7.47;2.97;;;;;10.70;97693.00;;;;5031553;28;20053;-63
2023/12/09 11:49:09;;;;;;;6.68;2.70;;;;;10.70;97682.00;;;;5031594;28;20045;-65
2023/12/09 11:51:38;;;;;;;7.93;3.13;;;;;10.70;97680.00;;;;5031647;28;20048;-64
2023/12/09 11:54:09;;;;;;;7.50;2.33;;;;;10.70;97681.00;;;;5030997;28;20108;-65
2023/12/09 11:56:38;;;;;;;7.45;2.67;;;;;10.70;97670.00;;;;5031482;28;20053;-65
2023/12/09 11:59:05;;;;;;;10.00;4.25;;;;;10.60;97659.00;;;;5031596;28;20124;-65
2023/12/09 12:01:33;;;;;;;8.10;2.78;;;;;10.60;97647.00;;;;5031418;28;20060;-65
2023/12/09 12:04:00;;;;;;;7.28;3.00;;;;;10.60;97639.00;;;;5032129;28;20049;-63
2023/12/09 12:06:27;;;;;;;7.43;2.60;;;;;10.60;97635.00;;;;5033872;28;20103;-65
2023/12/09 12:08:54;;;;;;;6.80;2.42;;;;;10.80;97636.00;;;;5035207;28;20172;-65
2023/12/09 12:11:22;;;;;;;10.50;3.72;;;;;10.90;97628.00;;;;5035247;28;20073;-64
2023/12/09 12:13:49;;;;;;;6.68;3.10;;;;;10.90;97615.00;;;;5033347;28;20088;-65
2023/12/09 12:16:16;;;;;;;5.40;2.40;;;;;10.90;97624.00;;;;5035035;28;20116;-65
2023/12/09 12:18:43;;;;;;;8.65;6.35;;;;;11.00;97618.00;;;;5035005;28;20103;-64